Time;durP1;ratioP1;P1;durP2;ratioP2;P2;SDS_P1;SDS_P2;PMS_P1;PMS_P2;Temp;Humidity;BMP_temperature;BMP_pressure;BME280_temperature;BME280_humidity;BME280_pressure;Samples;Min_cycle;Max_cycle;Signal;HPM_P1;HPM_P2
2022/01/15 00:00:27;;;;;;;19.33;12.60;;;0.60;99.90;;;;;;5034159;28;20260;-55
2022/01/15 00:02:54;;;;;;;19.67;13.70;;;0.60;99.90;;;;;;5033839;28;20210;-56
2022/01/15 00:05:21;;;;;;;19.27;12.23;;;0.60;99.90;;;;;;5033799;28;20233;-56
2022/01/15 00:07:48;;;;;;;19.17;11.70;;;0.60;99.90;;;;;;5033925;28;20206;-55
2022/01/15 00:10:17;;;;;;;15.90;11.07;;;0.60;99.90;;;;;;5033914;28;20210;-56
2022/01/15 00:12:44;;;;;;;17.23;11.63;;;0.70;99.90;;;;;;5033647;28;20211;-55
2022/01/15 00:15:17;;;;;;;29.87;17.30;;;0.70;99.90;;;;;;5033690;28;20312;-55
2022/01/15 00:17:52;;;;;;;19.00;12.30;;;0.60;99.90;;;;;;5033250;28;20210;-55
2022/01/15 00:20:20;;;;;;;18.33;11.23;;;0.60;99.90;;;;;;5033780;28;20210;-56
2022/01/15 00:22:48;;;;;;;17.97;12.80;;;0.60;99.90;;;;;;5033730;28;20206;-56
2022/01/15 00:25:17;;;;;;;19.10;10.53;;;0.50;99.90;;;;;;5055662;22;20365;-58
2022/01/15 00:27:44;;;;;;;17.27;11.33;;;0.40;99.90;;;;;;5033670;28;20209;-57
2022/01/15 00:30:12;;;;;;;16.07;11.37;;;0.30;99.90;;;;;;5033457;28;20198;-57
2022/01/15 00:32:39;;;;;;;16.60;11.27;;;0.30;99.90;;;;;;5033231;28;20217;-57
2022/01/15 00:35:08;;;;;;;16.30;11.20;;;0.30;99.90;;;;;;5033590;28;20206;-58
2022/01/15 00:37:34;;;;;;;18.13;11.20;;;0.30;99.90;;;;;;5033315;28;20217;-59
2022/01/15 00:40:04;;;;;;;18.23;10.80;;;0.30;99.90;;;;;;5033220;28;20202;-57
2022/01/15 00:42:33;;;;;;;15.23;11.23;;;0.30;99.90;;;;;;5033216;28;20202;-58
2022/01/15 00:45:01;;;;;;;19.20;11.43;;;0.40;99.90;;;;;;5033053;28;20670;-58
2022/01/15 00:47:31;;;;;;;17.17;10.83;;;0.40;99.90;;;;;;5033362;28;20221;-58
2022/01/15 00:49:58;;;;;;;16.83;11.57;;;0.50;99.90;;;;;;5032174;28;20206;-57
2022/01/15 00:52:25;;;;;;;18.33;11.73;;;0.50;99.90;;;;;;5033064;28;20210;-58
2022/01/15 00:54:52;;;;;;;17.03;11.23;;;0.50;99.90;;;;;;5033146;28;20264;-58
2022/01/15 00:57:19;;;;;;;16.17;11.10;;;0.50;99.90;;;;;;5032558;28;20233;-58
2022/01/15 00:59:47;;;;;;;16.23;11.33;;;0.50;99.90;;;;;;5032621;28;20226;-57
2022/01/15 01:02:14;;;;;;;16.30;10.90;;;0.50;99.90;;;;;;5032912;28;20206;-58
2022/01/15 01:04:40;;;;;;;15.97;11.00;;;0.40;99.90;;;;;;5033084;28;20214;-58
2022/01/15 01:07:08;;;;;;;15.67;11.03;;;0.50;99.90;;;;;;5032514;28;20713;-58
2022/01/15 01:09:49;;;;;;;15.20;10.70;;;0.30;99.90;;;;;;5032527;28;20670;-58
2022/01/15 01:12:28;;;;;;;17.90;11.70;;;0.50;99.90;;;;;;5032780;28;20249;-58
2022/01/15 01:20:55;;;;;;;15.30;10.23;;;0.40;99.90;;;;;;4991380;28;20611;-62
2022/01/15 01:23:20;;;;;;;15.20;10.87;;;0.30;99.90;;;;;;5018183;28;20206;-58
2022/01/15 01:25:51;;;;;;;16.10;10.67;;;0.20;99.90;;;;;;5032395;28;20233;-58
2022/01/15 01:28:24;;;;;;;14.97;10.57;;;0.20;99.90;;;;;;5032221;28;20202;-58
2022/01/15 01:30:58;;;;;;;17.40;10.87;;;0.20;99.90;;;;;;5032472;28;20203;-58
2022/01/15 01:33:33;;;;;;;15.70;11.57;;;0.20;99.90;;;;;;5032553;28;20214;-58
2022/01/15 01:36:14;;;;;;;14.87;10.60;;;0.20;99.90;;;;;;5032286;28;20651;-58
2022/01/15 01:38:48;;;;;;;14.90;10.47;;;0.20;99.90;;;;;;5032037;28;20280;-57
2022/01/15 01:41:18;;;;;;;16.77;11.13;;;0.30;99.90;;;;;;5032174;28;20237;-58
2022/01/15 01:43:50;;;;;;;18.77;10.80;;;0.40;99.90;;;;;;5032475;28;20210;-58
2022/01/15 01:46:32;;;;;;;16.27;10.27;;;0.30;99.90;;;;;;5032385;28;20313;-58
2022/01/15 01:49:01;;;;;;;14.07;10.17;;;0.30;99.90;;;;;;5032408;28;20198;-57
2022/01/15 01:51:31;;;;;;;14.87;10.13;;;0.20;99.90;;;;;;5032598;28;20206;-57
2022/01/15 01:53:59;;;;;;;15.67;9.93;;;0.20;99.90;;;;;;5032708;28;20206;-57
2022/01/15 01:56:26;;;;;;;15.50;10.50;;;0.20;99.90;;;;;;5032557;28;20254;-57
2022/01/15 01:58:54;;;;;;;14.67;9.90;;;0.30;99.90;;;;;;5032066;28;20748;-57
2022/01/15 02:01:22;;;;;;;12.77;9.17;;;0.30;99.90;;;;;;5032251;28;20674;-57
2022/01/15 02:03:48;;;;;;;14.27;8.70;;;0.20;99.90;;;;;;5032347;28;20202;-57
2022/01/15 02:06:17;;;;;;;13.17;9.40;;;0.30;99.90;;;;;;5032088;28;20241;-56
2022/01/15 02:08:43;;;;;;;12.33;8.77;;;0.30;99.90;;;;;;5031930;28;20667;-57
2022/01/15 02:11:10;;;;;;;14.40;9.30;;;0.30;99.90;;;;;;5032605;28;20233;-56
2022/01/15 02:13:40;;;;;;;11.57;8.37;;;0.30;99.90;;;;;;5032446;28;20206;-57
2022/01/15 02:16:08;;;;;;;14.40;9.03;;;0.30;99.90;;;;;;5032603;28;20222;-57
2022/01/15 02:18:36;;;;;;;13.83;8.97;;;0.40;99.90;;;;;;5032001;28;20229;-57
2022/01/15 02:23:51;;;;;;;13.83;9.40;;;0.50;99.90;;;;;;5031964;28;20613;-57
2022/01/15 02:26:19;;;;;;;14.17;9.00;;;0.60;99.90;;;;;;5032285;28;20233;-57
2022/01/15 02:28:51;;;;;;;11.70;8.93;;;0.60;99.90;;;;;;5032244;28;20206;-57
2022/01/15 02:31:20;;;;;;;13.03;9.63;;;0.60;99.90;;;;;;5032120;28;20202;-57
2022/01/15 02:33:48;;;;;;;13.57;9.23;;;0.60;99.90;;;;;;5032228;28;20252;-57
2022/01/15 02:36:18;;;;;;;14.33;9.77;;;0.60;99.90;;;;;;5031912;28;20765;-57
2022/01/15 02:38:45;;;;;;;14.10;8.90;;;0.60;99.90;;;;;;5031646;28;20233;-57
2022/01/15 02:41:13;;;;;;;13.10;9.07;;;0.70;99.90;;;;;;5032533;28;20276;-57
2022/01/15 02:43:39;;;;;;;15.10;9.87;;;0.70;99.90;;;;;;5031648;28;20206;-57
2022/01/15 02:46:20;;;;;;;12.93;9.50;;;0.80;99.90;;;;;;5031711;28;20230;-57
2022/01/15 02:48:48;;;;;;;15.17;9.57;;;0.80;99.90;;;;;;5031420;28;20241;-57
2022/01/15 02:51:17;;;;;;;13.17;9.33;;;0.80;99.90;;;;;;5031552;28;20210;-57
2022/01/15 02:53:44;;;;;;;14.00;9.37;;;0.80;99.90;;;;;;5031690;28;20694;-57
2022/01/15 02:56:11;;;;;;;14.87;8.57;;;0.70;99.90;;;;;;5031252;28;20257;-57
2022/01/15 02:58:38;;;;;;;14.30;9.10;;;0.70;99.90;;;;;;5031151;28;20280;-57
2022/01/15 03:01:06;;;;;;;13.23;8.57;;;0.70;99.90;;;;;;5031427;28;20691;-57
2022/01/15 03:03:34;;;;;;;13.97;9.70;;;0.70;99.90;;;;;;5031321;28;20214;-57
2022/01/15 03:06:01;;;;;;;12.87;9.67;;;0.80;99.90;;;;;;5031417;28;20786;-57
2022/01/15 03:08:32;;;;;;;13.10;9.20;;;0.80;99.90;;;;;;5031106;28;20241;-57
2022/01/15 03:11:00;;;;;;;13.20;9.13;;;0.80;99.90;;;;;;5031541;28;20442;-57
2022/01/15 03:13:27;;;;;;;15.17;9.10;;;0.80;99.90;;;;;;5034543;28;20301;-57
2022/01/15 03:15:54;;;;;;;12.53;8.33;;;0.80;99.90;;;;;;5034989;28;20226;-57
2022/01/15 03:18:21;;;;;;;11.57;8.23;;;0.70;99.90;;;;;;5034750;28;20221;-57
2022/01/15 03:20:48;;;;;;;12.20;8.40;;;0.70;99.90;;;;;;5034898;28;20705;-57
2022/01/15 03:23:15;;;;;;;14.53;9.30;;;0.60;99.90;;;;;;5034891;28;20614;-57
2022/01/15 03:25:43;;;;;;;12.60;8.13;;;0.60;99.90;;;;;;5034659;28;20743;-56
2022/01/15 03:28:09;;;;;;;15.67;9.30;;;0.60;99.90;;;;;;5034984;28;20688;-57
2022/01/15 03:30:36;;;;;;;16.00;9.47;;;0.50;99.90;;;;;;5035131;28;20206;-56
2022/01/15 03:33:03;;;;;;;13.20;8.43;;;0.50;99.90;;;;;;5035283;28;20292;-57
2022/01/15 03:35:30;;;;;;;12.37;8.47;;;0.40;99.90;;;;;;5035115;28;20574;-57
2022/01/15 03:37:57;;;;;;;14.00;9.30;;;0.40;99.90;;;;;;5035845;28;20214;-57
2022/01/15 03:40:23;;;;;;;11.83;8.63;;;0.40;99.90;;;;;;5035027;28;20222;-57
2022/01/15 03:42:51;;;;;;;11.67;8.67;;;0.40;99.90;;;;;;5034636;28;20623;-57
2022/01/15 03:45:18;;;;;;;14.03;9.77;;;0.50;99.90;;;;;;5034739;28;20233;-57
2022/01/15 03:47:46;;;;;;;14.10;9.63;;;0.50;99.90;;;;;;5034264;28;20252;-57
2022/01/15 03:50:14;;;;;;;14.60;9.60;;;0.50;99.90;;;;;;5034034;28;20202;-57
2022/01/15 03:52:41;;;;;;;13.07;8.57;;;0.50;99.90;;;;;;5034177;28;20815;-57
2022/01/15 03:55:09;;;;;;;12.17;8.70;;;0.50;99.90;;;;;;5034437;28;20698;-56
2022/01/15 03:57:36;;;;;;;11.60;7.97;;;0.40;99.90;;;;;;5034422;28;20210;-57
2022/01/15 04:00:07;;;;;;;12.20;8.50;;;0.40;99.90;;;;;;5033995;28;20233;-57
2022/01/15 04:02:34;;;;;;;14.27;8.63;;;0.30;99.90;;;;;;5034036;28;20206;-57
2022/01/15 04:05:01;;;;;;;12.30;8.27;;;0.20;99.90;;;;;;5033833;28;20206;-57
2022/01/15 04:07:27;;;;;;;14.57;9.20;;;0.20;99.90;;;;;;5033964;28;20226;-57
2022/01/15 04:09:54;;;;;;;12.40;8.80;;;0.30;99.90;;;;;;5033979;28;20209;-56
2022/01/15 04:12:21;;;;;;;12.20;8.50;;;0.30;99.90;;;;;;5034305;28;20210;-57
2022/01/15 04:14:47;;;;;;;13.17;9.37;;;0.30;99.90;;;;;;5034793;28;20202;-57
2022/01/15 04:17:15;;;;;;;13.97;8.83;;;0.20;99.90;;;;;;5034605;28;20226;-57
2022/01/15 04:19:42;;;;;;;11.60;8.33;;;0.30;99.90;;;;;;5034082;28;20230;-57
2022/01/15 04:22:09;;;;;;;13.40;8.97;;;0.30;99.90;;;;;;5034018;28;20260;-56
2022/01/15 04:24:35;;;;;;;11.43;8.43;;;0.20;99.90;;;;;;5033776;28;20210;-57
2022/01/15 04:27:02;;;;;;;12.57;9.00;;;0.20;99.90;;;;;;5033443;28;20237;-57
2022/01/15 04:29:30;;;;;;;13.80;8.93;;;0.20;99.90;;;;;;5033598;28;20206;-57
2022/01/15 04:31:57;;;;;;;12.67;8.60;;;0.20;99.90;;;;;;5033298;28;20214;-58
2022/01/15 04:34:27;;;;;;;10.60;7.73;;;0.20;99.90;;;;;;5033501;28;20664;-58
2022/01/15 04:37:00;;;;;;;12.60;8.10;;;0.10;99.90;;;;;;5033828;28;20230;-58
2022/01/15 04:39:26;;;;;;;12.17;8.30;;;0.10;99.90;;;;;;5033359;28;20237;-58
2022/01/15 04:41:53;;;;;;;12.07;7.97;;;0.10;99.90;;;;;;5033141;28;20671;-57
2022/01/15 04:44:20;;;;;;;9.70;7.33;;;0.10;99.90;;;;;;5033340;28;20206;-58
2022/01/15 04:46:47;;;;;;;11.03;7.40;;;0.00;99.90;;;;;;5033497;28;20229;-58
2022/01/15 04:49:13;;;;;;;12.33;7.70;;;-0.10;99.90;;;;;;5033268;28;20211;-57
2022/01/15 04:51:41;;;;;;;10.30;7.93;;;-0.20;99.90;;;;;;5033307;28;20206;-58
2022/01/15 04:54:08;;;;;;;12.37;8.23;;;-0.30;99.90;;;;;;5033180;28;20630;-57
2022/01/15 04:56:35;;;;;;;11.40;8.23;;;-0.30;99.90;;;;;;5033013;28;20226;-58
2022/01/15 04:59:02;;;;;;;12.17;7.87;;;-0.20;99.90;;;;;;5032817;28;20210;-58
2022/01/15 05:01:28;;;;;;;12.53;7.90;;;-0.30;99.90;;;;;;5033187;28;20210;-58
2022/01/15 05:03:55;;;;;;;10.13;7.90;;;-0.30;99.90;;;;;;5033323;28;20245;-58
2022/01/15 05:06:22;;;;;;;12.30;7.77;;;-0.30;99.90;;;;;;5033288;28;20230;-58
2022/01/15 05:09:00;;;;;;;11.27;7.50;;;-0.30;99.90;;;;;;5033223;28;20638;-58
2022/01/15 05:11:31;;;;;;;12.50;8.03;;;-0.20;99.90;;;;;;5032991;28;20264;-59
2022/01/15 05:13:57;;;;;;;14.87;8.80;;;-0.20;99.90;;;;;;5032983;28;20213;-59
2022/01/15 05:16:24;;;;;;;14.23;8.17;;;-0.20;99.90;;;;;;5032922;28;20230;-58
2022/01/15 05:18:51;;;;;;;10.97;7.20;;;-0.20;99.90;;;;;;5032594;28;20202;-58
2022/01/15 05:21:17;;;;;;;11.03;7.43;;;-0.10;99.90;;;;;;5032816;28;20230;-58
2022/01/15 05:23:44;;;;;;;11.70;7.27;;;-0.10;99.90;;;;;;5032592;28;20218;-59
2022/01/15 05:26:12;;;;;;;12.17;7.60;;;0.00;99.90;;;;;;5032339;28;20238;-58
2022/01/15 05:28:40;;;;;;;11.43;7.30;;;0.10;99.90;;;;;;5032210;28;20603;-59
2022/01/15 05:31:06;;;;;;;12.33;7.80;;;0.10;99.90;;;;;;5032576;28;20211;-58
2022/01/15 05:33:34;;;;;;;9.50;7.63;;;0.00;99.90;;;;;;5032578;28;20283;-58
2022/01/15 05:36:01;;;;;;;11.53;8.10;;;0.00;99.90;;;;;;5031953;28;20313;-58
2022/01/15 05:38:27;;;;;;;11.50;8.63;;;0.00;99.90;;;;;;5032204;28;20210;-58
2022/01/15 05:40:54;;;;;;;11.77;8.47;;;0.00;99.90;;;;;;5032122;28;20238;-58
2022/01/15 05:43:22;;;;;;;13.23;8.73;;;0.10;99.90;;;;;;5032438;28;20210;-58
2022/01/15 05:45:49;;;;;;;10.63;7.43;;;0.10;99.90;;;;;;5032193;28;20724;-58
2022/01/15 05:48:16;;;;;;;13.80;9.17;;;0.00;99.90;;;;;;5032151;28;20217;-58
2022/01/15 05:50:43;;;;;;;13.77;8.33;;;-0.10;99.90;;;;;;5032170;28;20206;-58
2022/01/15 05:53:10;;;;;;;11.33;8.50;;;0.00;99.90;;;;;;5032215;28;20210;-58
2022/01/15 05:55:36;;;;;;;10.63;7.43;;;0.00;99.90;;;;;;5032562;28;20230;-58
2022/01/15 05:58:03;;;;;;;12.63;8.17;;;0.00;99.90;;;;;;5032273;28;20272;-58
2022/01/15 06:00:31;;;;;;;13.80;9.97;;;0.10;99.90;;;;;;5032042;28;20222;-58
2022/01/15 06:02:58;;;;;;;22.90;13.93;;;0.10;99.90;;;;;;5032251;28;20217;-59
2022/01/15 06:05:24;;;;;;;21.03;13.47;;;0.00;99.90;;;;;;5032022;28;20629;-59
2022/01/15 06:07:51;;;;;;;18.13;11.40;;;0.00;99.90;;;;;;5031838;28;20623;-58
2022/01/15 06:10:18;;;;;;;11.47;8.10;;;0.00;99.90;;;;;;5031876;28;20748;-58
2022/01/15 06:12:44;;;;;;;11.40;7.40;;;0.10;99.90;;;;;;5032308;28;20210;-59
2022/01/15 06:15:13;;;;;;;12.17;7.10;;;0.10;99.90;;;;;;5031975;28;20214;-57
2022/01/15 06:17:41;;;;;;;11.20;7.33;;;0.10;99.90;;;;;;5031884;28;20205;-58
2022/01/15 06:20:09;;;;;;;10.60;7.60;;;0.10;99.90;;;;;;5031563;28;20233;-58
2022/01/15 06:22:35;;;;;;;12.37;7.37;;;0.10;99.90;;;;;;5031916;28;20673;-58
2022/01/15 06:25:03;;;;;;;13.17;9.37;;;0.00;99.90;;;;;;5032062;28;20577;-57
2022/01/15 06:27:30;;;;;;;10.87;7.20;;;0.00;99.90;;;;;;5029147;22;20330;-62
2022/01/15 06:29:57;;;;;;;9.73;7.70;;;0.00;99.90;;;;;;5011719;28;20211;-62
2022/01/15 06:32:24;;;;;;;11.30;8.07;;;0.00;99.90;;;;;;5012104;28;20210;-60
2022/01/15 06:34:52;;;;;;;11.80;8.37;;;0.00;99.90;;;;;;5011841;28;20713;-61
2022/01/15 06:37:20;;;;;;;17.30;11.20;;;0.10;99.90;;;;;;5012091;28;20235;-61
2022/01/15 06:39:48;;;;;;;15.00;9.73;;;0.00;99.90;;;;;;5011828;28;20211;-62
2022/01/15 06:42:15;;;;;;;23.63;14.33;;;0.10;99.90;;;;;;5012065;28;20207;-61
2022/01/15 06:44:41;;;;;;;14.10;8.87;;;0.10;99.90;;;;;;5011895;28;20265;-61
2022/01/15 06:47:08;;;;;;;13.43;9.90;;;0.10;99.90;;;;;;5012871;28;20230;-61
2022/01/15 06:49:35;;;;;;;14.87;9.20;;;0.10;99.90;;;;;;5015270;28;20214;-61
2022/01/15 06:52:03;;;;;;;14.00;9.67;;;0.10;99.90;;;;;;5015746;28;20630;-61
2022/01/15 06:54:30;;;;;;;12.70;8.87;;;0.10;99.90;;;;;;5015677;28;20211;-61
2022/01/15 06:56:56;;;;;;;13.07;9.27;;;0.10;99.90;;;;;;5015492;28;20227;-61
2022/01/15 06:59:23;;;;;;;18.73;11.60;;;0.10;99.90;;;;;;5015275;28;20241;-61
2022/01/15 07:01:50;;;;;;;14.80;9.80;;;0.10;99.90;;;;;;5015352;28;20334;-61
2022/01/15 07:04:17;;;;;;;13.73;9.33;;;0.10;99.90;;;;;;5015192;28;20258;-62
2022/01/15 07:06:43;;;;;;;13.10;9.20;;;0.10;99.90;;;;;;5015402;28;20266;-62
2022/01/15 07:09:11;;;;;;;12.37;8.90;;;0.10;99.90;;;;;;5015223;28;20206;-62
2022/01/15 07:11:38;;;;;;;13.80;9.07;;;0.10;99.90;;;;;;5015317;28;20269;-61
2022/01/15 07:14:05;;;;;;;12.60;9.53;;;0.10;99.90;;;;;;5015260;28;20207;-61
2022/01/15 07:16:32;;;;;;;14.97;9.50;;;0.10;99.90;;;;;;5014967;28;20273;-62
2022/01/15 07:18:58;;;;;;;14.37;9.40;;;0.10;99.90;;;;;;5014951;28;20210;-60
2022/01/15 07:21:25;;;;;;;12.67;10.00;;;0.20;99.90;;;;;;5015146;28;20277;-60
2022/01/15 07:23:51;;;;;;;13.77;9.70;;;0.10;99.90;;;;;;5015089;28;20268;-62
2022/01/15 07:26:21;;;;;;;15.90;10.80;;;0.20;99.90;;;;;;5014916;28;20247;-61
2022/01/15 07:28:48;;;;;;;14.03;10.30;;;0.20;99.90;;;;;;5014936;28;20257;-61
2022/01/15 07:31:14;;;;;;;14.70;10.70;;;0.10;99.90;;;;;;5015111;28;20604;-61
2022/01/15 07:33:41;;;;;;;15.10;10.40;;;0.10;99.90;;;;;;5015359;28;20636;-61
2022/01/15 07:36:08;;;;;;;17.83;11.03;;;0.10;99.90;;;;;;5014885;28;20238;-60
2022/01/15 07:38:36;;;;;;;16.13;11.20;;;0.00;99.90;;;;;;5014865;28;20207;-62
2022/01/15 07:41:02;;;;;;;14.00;10.03;;;0.10;99.90;;;;;;5014644;28;20226;-61
2022/01/15 07:43:30;;;;;;;13.70;9.67;;;0.00;99.90;;;;;;5014630;28;20210;-61
2022/01/15 07:45:57;;;;;;;17.33;12.23;;;-0.40;99.90;;;;;;5014498;28;20231;-61
2022/01/15 07:48:24;;;;;;;12.83;10.37;;;-0.40;99.90;;;;;;5014524;28;20214;-61
2022/01/15 07:50:51;;;;;;;12.57;9.90;;;-0.30;99.90;;;;;;5014123;28;20207;-62
2022/01/15 07:53:17;;;;;;;14.73;10.80;;;-0.20;99.90;;;;;;5014646;28;20214;-61
2022/01/15 07:55:44;;;;;;;14.67;10.13;;;0.00;99.90;;;;;;5014735;28;20273;-61
2022/01/15 07:58:11;;;;;;;14.63;10.77;;;0.10;99.90;;;;;;5014253;28;20315;-61
2022/01/15 08:00:39;;;;;;;14.47;10.93;;;0.20;99.90;;;;;;5013930;28;20611;-61
2022/01/15 08:03:05;;;;;;;13.53;10.40;;;0.10;99.90;;;;;;5014251;28;20225;-61
2022/01/15 08:05:32;;;;;;;13.47;10.83;;;0.20;99.90;;;;;;5014240;28;20202;-61
2022/01/15 08:07:59;;;;;;;14.80;11.43;;;0.40;99.90;;;;;;5014254;28;20215;-61
2022/01/15 08:10:26;;;;;;;15.50;11.97;;;0.50;99.90;;;;;;5014409;28;20858;-61
2022/01/15 08:12:53;;;;;;;13.23;10.93;;;0.60;99.90;;;;;;5013955;28;20218;-61
2022/01/15 08:15:21;;;;;;;14.93;11.27;;;0.70;99.90;;;;;;5014179;28;20264;-61
2022/01/15 08:17:49;;;;;;;16.90;11.80;;;0.80;99.90;;;;;;5014303;28;20229;-63
2022/01/15 08:20:17;;;;;;;12.57;10.60;;;0.90;99.90;;;;;;5013778;28;20203;-60
2022/01/15 08:22:45;;;;;;;13.33;11.47;;;1.00;99.90;;;;;;5014055;28;20257;-61
2022/01/15 08:25:13;;;;;;;16.90;12.60;;;1.00;99.90;;;;;;5013930;28;20754;-61
2022/01/15 08:27:40;;;;;;;14.87;11.13;;;1.10;99.90;;;;;;5013539;28;20321;-61
2022/01/15 08:30:09;;;;;;;14.50;11.77;;;1.30;99.90;;;;;;5013715;28;20297;-61
2022/01/15 08:32:36;;;;;;;16.37;11.73;;;1.30;99.90;;;;;;5013987;28;20214;-62
2022/01/15 08:35:06;;;;;;;17.27;11.43;;;1.50;99.90;;;;;;5013767;28;20230;-61
2022/01/15 08:37:34;;;;;;;16.50;12.93;;;1.60;99.90;;;;;;5013427;28;20314;-61
2022/01/15 08:40:01;;;;;;;16.57;12.43;;;1.70;99.90;;;;;;5013123;28;20206;-61
2022/01/15 08:42:27;;;;;;;19.83;12.53;;;1.80;99.90;;;;;;5013504;28;20230;-61
2022/01/15 08:44:54;;;;;;;16.73;12.00;;;1.80;99.90;;;;;;5013583;28;20207;-61
2022/01/15 08:47:21;;;;;;;16.43;12.63;;;1.90;99.90;;;;;;5013310;28;20233;-61
2022/01/15 08:49:48;;;;;;;15.70;11.43;;;1.90;99.90;;;;;;5013288;28;20207;-62
2022/01/15 08:52:16;;;;;;;18.43;14.87;;;2.00;99.90;;;;;;5013287;28;20253;-62
2022/01/15 08:54:42;;;;;;;13.83;11.60;;;2.00;99.90;;;;;;5013233;28;20210;-62
2022/01/15 08:57:09;;;;;;;14.50;12.10;;;2.00;99.90;;;;;;5013194;28;20301;-60
2022/01/15 08:59:36;;;;;;;18.70;11.87;;;1.90;99.90;;;;;;5012984;28;20207;-61
2022/01/15 09:02:03;;;;;;;15.93;11.57;;;1.90;99.90;;;;;;5013027;28;20703;-61
2022/01/15 09:04:30;;;;;;;18.80;13.70;;;2.10;99.90;;;;;;5012904;28;20624;-70
2022/01/15 09:06:57;;;;;;;15.60;11.47;;;2.20;99.90;;;;;;5013032;28;20227;-62
2022/01/15 09:09:25;;;;;;;14.80;11.73;;;2.30;99.90;;;;;;5012136;28;20215;-59
2022/01/15 09:11:51;;;;;;;13.50;10.87;;;2.10;99.90;;;;;;5013209;28;20241;-61
2022/01/15 09:14:18;;;;;;;15.97;11.17;;;2.10;99.90;;;;;;5013007;28;20261;-61
2022/01/15 09:16:45;;;;;;;13.80;11.03;;;2.20;99.90;;;;;;5012886;28;20285;-61
2022/01/15 09:19:11;;;;;;;15.70;11.20;;;2.40;99.90;;;;;;5012586;28;20211;-61
2022/01/15 09:21:38;;;;;;;15.30;10.53;;;2.50;99.90;;;;;;5012557;28;20226;-61
2022/01/15 09:24:06;;;;;;;17.87;11.93;;;2.70;99.90;;;;;;5012844;28;20214;-61
2022/01/15 09:27:01;;;;;;;16.03;11.70;;;2.70;99.90;;;;;;5013055;28;20278;-61
2022/01/15 09:32:13;;;;;;;15.83;11.77;;;3.10;99.90;;;;;;5012663;28;20230;-61
2022/01/15 09:34:40;;;;;;;18.07;11.97;;;3.20;99.90;;;;;;5012779;28;20214;-61
2022/01/15 09:37:08;;;;;;;14.07;11.40;;;3.00;99.90;;;;;;5012421;28;20765;-60
2022/01/15 09:39:35;;;;;;;14.67;11.63;;;2.90;99.90;;;;;;5012093;28;20254;-60
2022/01/15 09:42:04;;;;;;;15.00;11.47;;;3.00;99.90;;;;;;5012347;28;20235;-61
2022/01/15 09:44:33;;;;;;;13.57;11.10;;;3.20;99.90;;;;;;5012391;28;20967;-59
2022/01/15 09:47:01;;;;;;;14.50;10.60;;;3.40;99.90;;;;;;5012724;28;20330;-60
2022/01/15 09:49:29;;;;;;;14.80;10.57;;;3.40;99.90;;;;;;5012099;28;20207;-60
2022/01/15 09:51:56;;;;;;;13.47;11.37;;;3.00;99.90;;;;;;5012497;28;20621;-60
2022/01/15 09:54:23;;;;;;;14.53;11.90;;;2.80;99.90;;;;;;5012351;28;20207;-59
2022/01/15 09:56:49;;;;;;;17.60;13.80;;;2.90;99.90;;;;;;5012122;28;20273;-60
2022/01/15 09:59:17;;;;;;;19.77;15.10;;;3.20;99.90;;;;;;5011790;28;20203;-60
2022/01/15 10:01:44;;;;;;;19.40;14.63;;;3.50;99.90;;;;;;5012249;28;20222;-61
2022/01/15 10:04:11;;;;;;;20.33;14.30;;;3.60;99.90;;;;;;5012355;28;20214;-60
2022/01/15 10:06:37;;;;;;;17.97;13.03;;;3.70;99.90;;;;;;5012507;28;20226;-60
2022/01/15 10:09:06;;;;;;;17.20;13.43;;;3.80;99.90;;;;;;5012327;28;20211;-60
2022/01/15 10:11:41;;;;;;;23.43;14.90;;;3.80;99.90;;;;;;5012210;28;20209;-60
2022/01/15 10:17:05;;;;;;;23.63;17.33;;;4.00;99.90;;;;;;5089542;28;20572;-60
2022/01/15 10:19:33;;;;;;;24.50;18.73;;;4.30;99.90;;;;;;5089110;28;20207;-59
2022/01/15 10:22:08;;;;;;;21.10;17.03;;;4.40;99.90;;;;;;5089318;28;20231;-59
2022/01/15 10:24:35;;;;;;;19.23;14.37;;;4.50;99.90;;;;;;5089589;28;20626;-60
2022/01/15 10:27:22;;;;;;;21.93;15.57;;;4.70;99.90;;;;;;5089471;28;20293;-60
2022/01/15 10:29:51;;;;;;;22.50;16.03;;;4.70;99.90;;;;;;5093276;22;20216;-59
2022/01/15 10:32:19;;;;;;;17.40;14.23;;;4.80;99.90;;;;;;5061242;28;20205;-58
2022/01/15 10:34:46;;;;;;;20.40;14.93;;;4.90;99.90;;;;;;5068645;28;20212;-59
2022/01/15 10:37:15;;;;;;;18.13;14.77;;;4.90;99.90;;;;;;5037731;28;20627;-61
2022/01/15 10:39:53;;;;;;;24.43;16.90;;;4.80;99.90;;;;;;5048648;28;20894;-60
2022/01/15 10:42:23;;;;;;;23.97;19.37;;;4.70;99.90;;;;;;5049244;28;20208;-59
2022/01/15 10:44:51;;;;;;;32.50;25.07;;;4.80;99.90;;;;;;5048039;28;20281;-59
2022/01/15 10:47:21;;;;;;;18.03;15.10;;;5.10;99.90;;;;;;5048293;28;20860;-62
2022/01/15 10:49:48;;;;;;;16.10;13.03;;;5.30;99.90;;;;;;5048447;28;20717;-60
2022/01/15 10:52:17;;;;;;;15.73;12.40;;;5.30;99.90;;;;;;5048666;28;20209;-59
2022/01/15 10:54:58;;;;;;;14.40;11.63;;;5.40;99.90;;;;;;5048992;28;20209;-58
2022/01/15 10:57:26;;;;;;;14.90;12.53;;;5.10;99.90;;;;;;5048856;28;20206;-56
2022/01/15 11:00:01;;;;;;;15.53;12.23;;;4.90;99.90;;;;;;5048972;28;20234;-58
2022/01/15 11:02:29;;;;;;;15.53;12.73;;;4.50;99.90;;;;;;5049115;28;20213;-55
2022/01/15 11:04:57;;;;;;;16.47;12.83;;;4.30;99.90;;;;;;5049049;28;20205;-57
2022/01/15 11:07:24;;;;;;;15.10;12.83;;;4.50;99.90;;;;;;5048587;28;20209;-56
2022/01/15 11:09:53;;;;;;;16.97;13.30;;;4.90;99.90;;;;;;5048203;28;20226;-58
2022/01/15 11:12:20;;;;;;;16.23;13.43;;;5.00;99.90;;;;;;5048510;28;20561;-59
2022/01/15 11:14:47;;;;;;;16.17;14.47;;;5.10;99.90;;;;;;5048671;28;20209;-56
2022/01/15 11:17:14;;;;;;;17.37;14.20;;;5.40;99.90;;;;;;5048281;28;20240;-56
2022/01/15 11:19:45;;;;;;;19.50;15.27;;;5.70;99.90;;;;;;5048311;28;20233;-57
2022/01/15 11:22:18;;;;;;;18.67;14.90;;;5.90;99.90;;;;;;5049093;28;20648;-57
2022/01/15 11:24:46;;;;;;;18.20;15.23;;;6.00;99.90;;;;;;5048040;28;20210;-57
2022/01/15 11:27:12;;;;;;;20.60;15.10;;;6.20;99.90;;;;;;5041694;28;20209;-58
2022/01/15 11:29:43;;;;;;;19.10;16.00;;;6.10;99.90;;;;;;5034521;28;20241;-62
2022/01/15 11:32:12;;;;;;;21.70;16.20;;;6.10;99.90;;;;;;5035135;28;20213;-62
2022/01/15 11:34:39;;;;;;;21.30;16.83;;;5.90;99.90;;;;;;5035577;28;20230;-62
2022/01/15 11:37:17;;;;;;;25.47;18.43;;;5.80;99.90;;;;;;5034883;28;20230;-62
2022/01/15 11:39:45;;;;;;;24.97;18.23;;;5.60;99.90;;;;;;5034831;28;20246;-58
2022/01/15 11:42:26;;;;;;;23.00;18.43;;;5.40;99.90;;;;;;5034699;28;20213;-61
2022/01/15 11:44:53;;;;;;;21.17;17.07;;;5.30;99.90;;;;;;5035168;28;20585;-60
2022/01/15 11:47:25;;;;;;;20.00;16.60;;;5.30;99.90;;;;;;5034051;28;20210;-61
2022/01/15 11:49:53;;;;;;;22.07;16.30;;;5.50;99.90;;;;;;5034192;28;20230;-62
2022/01/15 11:52:45;;;;;;;24.43;16.77;;;5.70;99.90;;;;;;5034928;28;20305;-58
2022/01/15 11:55:15;;;;;;;18.67;16.00;;;5.60;99.90;;;;;;5034636;28;20195;-60
2022/01/15 11:57:54;;;;;;;20.97;15.27;;;5.60;99.90;;;;;;5034448;28;20213;-59
2022/01/15 12:00:24;;;;;;;20.70;15.20;;;5.70;99.90;;;;;;5034436;28;20725;-60
2022/01/15 12:02:59;;;;;;;23.03;16.23;;;5.80;99.90;;;;;;5033716;28;20206;-61
2022/01/15 12:05:31;;;;;;;23.17;17.27;;;6.00;99.90;;;;;;5033833;28;20217;-60
2022/01/15 12:08:27;;;;;;;22.50;17.77;;;6.10;99.90;;;;;;5034357;28;20228;-61
2022/01/15 12:10:55;;;;;;;23.23;17.07;;;6.10;99.90;;;;;;5033528;28;20212;-64
2022/01/15 12:13:24;;;;;;;20.17;15.97;;;6.30;99.90;;;;;;5033236;28;20706;-60
2022/01/15 12:16:14;;;;;;;20.83;16.93;;;6.60;99.90;;;;;;5033902;28;20260;-61
2022/01/15 12:18:45;;;;;;;19.23;15.90;;;6.80;99.90;;;;;;5034373;28;20239;-63
2022/01/15 12:21:12;;;;;;;20.57;16.23;;;7.00;99.90;;;;;;5035672;28;20268;-63
2022/01/15 12:23:40;;;;;;;19.10;15.83;;;7.20;99.90;;;;;;5034424;28;20210;-61
2022/01/15 12:26:10;;;;;;;21.73;16.73;;;7.30;99.90;;;;;;5034552;28;20218;-62
2022/01/15 12:28:37;;;;;;;19.77;15.60;;;7.40;99.90;;;;;;5033815;28;20230;-61
2022/01/15 12:31:04;;;;;;;19.13;15.93;;;7.40;99.90;;;;;;5033745;28;20206;-61
2022/01/15 12:33:31;;;;;;;19.00;14.83;;;7.30;99.90;;;;;;5034146;28;20272;-60
2022/01/15 12:35:58;;;;;;;19.67;15.17;;;7.30;99.90;;;;;;5033676;28;20222;-63
2022/01/15 12:38:26;;;;;;;19.20;15.07;;;7.30;99.90;;;;;;5032907;28;20216;-61
2022/01/15 12:40:57;;;;;;;20.93;15.30;;;7.40;99.90;;;;;;5033823;28;20647;-59
2022/01/15 12:43:25;;;;;;;19.90;16.00;;;7.60;99.90;;;;;;5033702;28;20217;-60
2022/01/15 12:45:53;;;;;;;19.70;16.03;;;7.70;99.90;;;;;;5033258;28;20662;-61
2022/01/15 12:48:22;;;;;;;20.43;16.67;;;7.80;99.90;;;;;;5033084;28;20210;-60
2022/01/15 12:50:52;;;;;;;20.30;15.93;;;7.70;99.90;;;;;;5032808;28;20206;-62
2022/01/15 12:53:20;;;;;;;17.60;15.53;;;7.70;99.90;;;;;;5033034;28;20210;-59
2022/01/15 12:55:47;;;;;;;18.47;15.53;;;7.70;99.90;;;;;;5033313;28;20234;-60
2022/01/15 12:58:18;;;;;;;17.93;15.63;;;7.70;99.90;;;;;;5032570;28;20206;-62
2022/01/15 13:00:45;;;;;;;19.50;14.93;;;7.70;99.90;;;;;;5032871;28;20666;-61